createdAt,value
2018-09-01T00:00:16.481Z,0.00
2018-09-01T00:01:16.466Z,0.00
2018-09-01T00:02:16.453Z,0.00
2018-09-01T00:03:16.446Z,0.00
2018-09-01T00:04:16.437Z,0.00
2018-09-01T00:05:16.433Z,0.00
2018-09-01T00:06:16.419Z,0.00
2018-09-01T00:07:16.415Z,0.00
2018-09-01T00:08:16.409Z,0.00
2018-09-01T00:09:16.398Z,0.00
2018-09-01T00:10:16.383Z,0.00
2018-09-01T00:11:16.471Z,0.00
2018-09-01T00:12:16.363Z,0.00
2018-09-01T00:13:16.360Z,0.00
2018-09-01T00:14:16.349Z,0.00
2018-09-01T00:15:16.343Z,0.00
2018-09-01T00:16:16.333Z,0.00
2018-09-01T00:17:16.322Z,0.00
2018-09-01T00:18:16.317Z,0.00
2018-09-01T00:19:16.311Z,0.00
2018-09-01T00:20:16.291Z,0.00
2018-09-01T00:21:16.283Z,0.00
2018-09-01T00:22:16.276Z,0.00
2018-09-01T00:23:16.269Z,0.00
2018-09-01T00:24:16.262Z,0.00
2018-09-01T00:25:16.249Z,0.00
2018-09-01T00:26:16.239Z,0.00
2018-09-01T00:27:16.230Z,0.00
2018-09-01T00:28:16.223Z,0.00
2018-09-01T00:29:16.215Z,0.00
2018-09-01T00:30:16.204Z,0.00
2018-09-01T00:31:16.195Z,0.00
2018-09-01T00:32:16.190Z,0.00
2018-09-01T00:33:16.179Z,0.00
2018-09-01T00:34:16.168Z,0.00
2018-09-01T00:35:16.161Z,0.00
2018-09-01T00:36:16.148Z,0.00
2018-09-01T00:37:16.164Z,0.00
2018-09-01T00:38:16.138Z,0.00
2018-09-01T00:39:16.128Z,0.00
2018-09-01T00:40:16.118Z,0.00
2018-09-01T00:41:16.105Z,0.00
2018-09-01T00:42:16.098Z,0.00
2018-09-01T00:43:16.096Z,0.00
2018-09-01T00:44:16.079Z,0.00
2018-09-01T00:45:16.075Z,0.00
2018-09-01T00:46:16.066Z,0.00
2018-09-01T00:47:16.050Z,0.00
2018-09-01T00:48:16.040Z,0.00
2018-09-01T00:49:16.034Z,0.00
2018-09-01T00:50:16.024Z,0.00
2018-09-01T00:51:16.018Z,0.00
2018-09-01T00:52:16.005Z,0.00
2018-09-01T00:53:16.000Z,0.00
2018-09-01T00:54:15.988Z,0.00
2018-09-01T00:55:15.979Z,0.00
2018-09-01T00:56:15.968Z,0.00
2018-09-01T00:57:15.960Z,0.00
2018-09-01T00:58:15.950Z,0.00
2018-09-01T00:59:15.944Z,0.00
2018-09-01T01:00:15.933Z,0.00
2018-09-01T01:01:15.929Z,0.00
2018-09-01T01:02:15.920Z,0.00
2018-09-01T01:03:15.908Z,0.00
2018-09-01T01:04:15.904Z,0.00
2018-09-01T01:05:15.895Z,0.00
2018-09-01T01:06:15.887Z,0.00
2018-09-01T01:07:15.878Z,0.00
2018-09-01T01:08:15.864Z,0.00
2018-09-01T01:09:15.853Z,0.00
2018-09-01T01:10:15.850Z,0.00
2018-09-01T01:11:15.841Z,0.00
2018-09-01T01:12:15.827Z,0.00
2018-09-01T01:13:15.817Z,0.00
2018-09-01T01:14:15.810Z,0.00
2018-09-01T01:15:15.806Z,0.00
2018-09-01T01:16:15.792Z,0.00
2018-09-01T01:17:15.785Z,0.00
2018-09-01T01:18:15.781Z,0.00
2018-09-01T01:19:15.767Z,0.00
2018-09-01T01:20:15.759Z,0.00
2018-09-01T01:21:15.754Z,0.00
2018-09-01T01:22:15.747Z,0.00
2018-09-01T01:23:15.735Z,0.00
2018-09-01T01:24:15.719Z,0.00
2018-09-01T01:25:15.715Z,0.00
2018-09-01T01:26:15.707Z,0.00
2018-09-01T01:27:15.701Z,0.00
2018-09-01T01:28:15.682Z,0.00
2018-09-01T01:29:15.676Z,0.00
2018-09-01T01:30:15.671Z,0.00
2018-09-01T01:31:15.664Z,0.00
2018-09-01T01:32:15.648Z,0.00
2018-09-01T01:33:15.650Z,0.00
2018-09-01T01:34:15.630Z,0.00
2018-09-01T01:35:15.622Z,0.00
2018-09-01T01:36:15.614Z,0.00
2018-09-01T01:37:15.602Z,0.00
2018-09-01T01:38:15.599Z,0.00
2018-09-01T01:39:15.587Z,0.00
2018-09-01T01:40:15.578Z,0.00
2018-09-01T01:41:15.573Z,0.00
2018-09-01T01:42:15.565Z,0.00
2018-09-01T01:43:15.549Z,0.00
2018-09-01T01:44:15.539Z,0.00
2018-09-01T01:45:15.532Z,0.00
2018-09-01T01:46:15.523Z,0.00
2018-09-01T01:47:15.518Z,0.00
2018-09-01T01:48:15.503Z,0.00
2018-09-01T01:49:15.495Z,0.00
2018-09-01T01:50:15.486Z,0.00
2018-09-01T01:51:15.479Z,0.00
2018-09-01T01:52:15.467Z,0.00
2018-09-01T01:53:15.461Z,0.00
2018-09-01T01:54:15.454Z,0.00
2018-09-01T01:55:15.447Z,0.00
2018-09-01T01:56:15.431Z,0.00
2018-09-01T01:57:15.422Z,0.00
2018-09-01T01:58:15.419Z,0.00
2018-09-01T01:59:15.404Z,0.00
2018-09-01T02:00:15.396Z,0.00
2018-09-01T02:01:15.390Z,0.00
2018-09-01T02:02:15.385Z,0.00
2018-09-01T02:03:15.374Z,0.00
2018-09-01T02:04:15.366Z,0.00
2018-09-01T02:05:15.352Z,0.00
2018-09-01T02:06:15.351Z,0.00
2018-09-01T02:07:15.336Z,0.00
2018-09-01T02:08:15.326Z,0.00
2018-09-01T02:09:15.322Z,0.00
2018-09-01T02:10:15.305Z,0.00
2018-09-01T02:11:15.301Z,0.00
2018-09-01T02:12:15.289Z,0.00
2018-09-01T02:13:15.282Z,0.00
2018-09-01T02:14:15.272Z,0.00
2018-09-01T02:15:15.259Z,0.00
2018-09-01T02:16:15.253Z,0.00
2018-09-01T02:17:15.250Z,0.00
2018-09-01T02:18:15.235Z,0.00
2018-09-01T02:19:15.234Z,0.00
2018-09-01T02:20:15.219Z,0.00
2018-09-01T02:21:15.213Z,0.00
2018-09-01T02:22:15.202Z,0.00
2018-09-01T02:23:15.193Z,0.00
2018-09-01T02:24:15.181Z,0.00
2018-09-01T02:25:15.172Z,0.00
2018-09-01T02:26:15.164Z,0.00
2018-09-01T02:27:15.161Z,0.00
2018-09-01T02:28:15.145Z,0.00
2018-09-01T02:29:15.139Z,0.00
2018-09-01T02:30:15.135Z,0.00
2018-09-01T02:31:15.126Z,0.00
2018-09-01T02:32:15.111Z,0.00
2018-09-01T02:33:15.108Z,0.00
2018-09-01T02:34:15.094Z,0.00
2018-09-01T02:35:15.089Z,0.00
2018-09-01T02:36:15.082Z,0.00
2018-09-01T02:37:15.071Z,0.00
2018-09-01T02:38:15.058Z,0.00
2018-09-01T02:39:15.054Z,0.00
2018-09-01T02:40:15.043Z,0.00
2018-09-01T02:41:15.031Z,0.00
2018-09-01T02:42:15.024Z,0.00
2018-09-01T02:43:15.014Z,0.00
2018-09-01T02:44:15.014Z,0.00
2018-09-01T02:45:15.000Z,0.00
2018-09-01T02:46:14.988Z,0.00
2018-09-01T02:47:14.982Z,0.00
2018-09-01T02:48:14.970Z,0.00
2018-09-01T02:49:14.968Z,0.00
2018-09-01T02:50:14.952Z,0.00
2018-09-01T02:51:14.947Z,0.00
2018-09-01T02:52:14.934Z,0.00
2018-09-01T02:53:14.927Z,0.00
2018-09-01T02:54:14.921Z,0.00
2018-09-01T02:55:14.908Z,0.00
2018-09-01T02:56:14.900Z,0.00
2018-09-01T02:57:14.894Z,0.00
2018-09-01T02:58:14.888Z,0.00
2018-09-01T02:59:14.873Z,0.00
2018-09-01T03:00:14.867Z,0.00
2018-09-01T03:01:14.859Z,0.00
2018-09-01T03:02:14.849Z,0.00
2018-09-01T03:03:14.842Z,0.00
2018-09-01T03:04:14.836Z,0.00
2018-09-01T03:05:14.821Z,0.00
2018-09-01T03:06:14.810Z,0.00
2018-09-01T03:07:14.803Z,0.00
2018-09-01T03:08:14.798Z,0.00
2018-09-01T03:09:14.789Z,0.00
2018-09-01T03:10:14.776Z,0.00
2018-09-01T03:11:14.770Z,0.00
2018-09-01T03:12:14.767Z,0.00
2018-09-01T03:13:14.749Z,0.00
2018-09-01T03:14:14.742Z,0.00
2018-09-01T03:15:14.734Z,0.00
2018-09-01T03:16:14.729Z,0.00
2018-09-01T03:17:14.721Z,0.00
2018-09-01T03:18:14.706Z,0.00
2018-09-01T03:19:14.703Z,0.00
2018-09-01T03:20:14.688Z,0.00
2018-09-01T03:21:14.690Z,0.00
2018-09-01T03:22:14.673Z,0.00
2018-09-01T03:23:14.668Z,0.00
2018-09-01T03:24:14.656Z,0.00
2018-09-01T03:25:14.647Z,0.00
2018-09-01T03:26:14.636Z,0.00
2018-09-01T03:27:14.630Z,0.00
2018-09-01T03:28:14.618Z,0.00
2018-09-01T03:29:14.610Z,0.00
2018-09-01T03:30:14.611Z,0.00
2018-09-01T03:31:14.602Z,0.00
2018-09-01T03:32:14.584Z,0.00
2018-09-01T03:33:14.582Z,0.00
2018-09-01T03:34:14.568Z,0.00
2018-09-01T03:35:14.564Z,0.00
2018-09-01T03:36:14.558Z,0.00
2018-09-01T03:37:14.539Z,0.00
2018-09-01T03:38:14.533Z,0.00
2018-09-01T03:39:14.527Z,0.00
2018-09-01T03:40:14.512Z,0.00
2018-09-01T03:41:14.507Z,0.00
2018-09-01T03:42:14.499Z,0.00
2018-09-01T03:43:14.491Z,0.00
2018-09-01T03:44:14.482Z,0.00
2018-09-01T03:45:14.472Z,0.00
2018-09-01T03:46:14.459Z,0.00
2018-09-01T03:47:14.453Z,0.00
2018-09-01T03:48:14.443Z,0.00
2018-09-01T03:49:14.437Z,0.00
2018-09-01T03:50:14.423Z,0.00
2018-09-01T03:51:14.419Z,0.00
2018-09-01T03:52:14.409Z,0.00
2018-09-01T03:53:14.399Z,0.00
2018-09-01T03:54:14.393Z,0.00
2018-09-01T03:55:14.379Z,0.00
2018-09-01T03:56:14.367Z,0.00
2018-09-01T03:57:14.365Z,0.00
2018-09-01T03:58:14.357Z,0.00
2018-09-01T03:59:14.342Z,0.00
2018-09-01T04:00:14.331Z,0.00
2018-09-01T04:01:14.326Z,0.00
2018-09-01T04:02:14.320Z,0.00
2018-09-01T04:03:14.304Z,0.00
2018-09-01T04:04:14.299Z,0.00
2018-09-01T04:05:14.294Z,0.00
2018-09-01T04:06:14.281Z,0.00
2018-09-01T04:07:14.274Z,0.00
2018-09-01T04:08:14.269Z,0.00
2018-09-01T04:09:14.251Z,0.00
2018-09-01T04:10:14.242Z,0.00
2018-09-01T04:11:14.234Z,0.00
2018-09-01T04:12:14.228Z,0.00
2018-09-01T04:13:14.220Z,0.00
2018-09-01T04:14:14.212Z,0.00
2018-09-01T04:15:14.200Z,0.00
2018-09-01T04:16:14.195Z,0.00
2018-09-01T04:17:14.186Z,0.00
2018-09-01T04:18:14.172Z,0.00
2018-09-01T04:19:14.167Z,0.00
2018-09-01T04:20:14.153Z,0.00
2018-09-01T04:21:14.145Z,0.00
2018-09-01T04:22:14.137Z,0.00
2018-09-01T04:23:14.134Z,0.00
2018-09-01T04:24:14.124Z,0.00
2018-09-01T04:25:14.117Z,0.00
2018-09-01T04:26:14.102Z,0.00
2018-09-01T04:27:14.098Z,0.00
2018-09-01T04:28:14.082Z,0.00
2018-09-01T04:29:14.075Z,0.00
2018-09-01T04:30:14.072Z,0.00
2018-09-01T04:31:14.073Z,0.00
2018-09-01T04:32:14.055Z,0.00
2018-09-01T04:33:14.047Z,0.00
2018-09-01T04:34:14.039Z,0.00
2018-09-01T04:35:14.027Z,0.00
2018-09-01T04:36:14.013Z,0.00
2018-09-01T04:37:14.012Z,0.00
2018-09-01T04:38:14.001Z,0.00
2018-09-01T04:39:14.002Z,0.00
2018-09-01T04:40:13.982Z,0.00
2018-09-01T04:41:13.971Z,0.00
2018-09-01T04:42:13.972Z,0.00
2018-09-01T04:43:13.955Z,0.00
2018-09-01T04:44:13.945Z,0.00
2018-09-01T04:45:13.941Z,0.00
2018-09-01T04:46:13.932Z,0.00
2018-09-01T04:47:13.921Z,0.00
2018-09-01T04:48:13.914Z,0.00
2018-09-01T04:49:13.908Z,0.00
2018-09-01T04:50:13.893Z,0.00
2018-09-01T04:51:13.887Z,0.00
2018-09-01T04:52:13.876Z,0.00
2018-09-01T04:53:13.869Z,0.00
2018-09-01T04:54:13.865Z,0.00
2018-09-01T04:55:13.854Z,0.00
2018-09-01T04:56:13.842Z,0.00
2018-09-01T04:57:13.837Z,0.00
2018-09-01T04:58:13.832Z,0.00
2018-09-01T04:59:13.823Z,0.00
2018-09-01T05:00:13.809Z,0.00
2018-09-01T05:01:13.962Z,0.00
2018-09-01T05:02:13.792Z,0.00
2018-09-01T05:03:13.783Z,0.00
2018-09-01T05:04:13.772Z,0.00
2018-09-01T05:05:13.765Z,0.00
2018-09-01T05:06:13.759Z,0.00
2018-09-01T05:07:13.751Z,0.00
2018-09-01T05:08:13.739Z,0.00
2018-09-01T05:09:13.733Z,0.00
2018-09-01T05:10:13.725Z,0.00
2018-09-01T05:11:13.714Z,0.00
2018-09-01T05:12:13.706Z,0.00
2018-09-01T05:13:13.693Z,0.00
2018-09-01T05:14:13.685Z,0.00
2018-09-01T05:15:13.676Z,0.00
2018-09-01T05:16:13.668Z,0.00
2018-09-01T05:17:13.662Z,0.00
2018-09-01T05:18:13.652Z,0.00
2018-09-01T05:19:13.644Z,0.00
2018-09-01T05:20:13.635Z,0.00
2018-09-01T05:21:13.627Z,5.63
2018-09-01T05:22:13.621Z,5.63
2018-09-01T05:23:13.607Z,5.63
2018-09-01T05:24:13.607Z,5.63
2018-09-01T05:25:13.589Z,5.63
2018-09-01T05:26:13.588Z,5.63
2018-09-01T05:27:13.574Z,5.63
2018-09-01T05:28:13.567Z,5.63
2018-09-01T05:29:13.561Z,5.63
2018-09-01T05:30:13.554Z,5.63
2018-09-01T05:31:13.541Z,5.63
2018-09-01T05:32:13.531Z,5.63
2018-09-01T05:33:13.525Z,5.63
2018-09-01T05:34:13.511Z,5.63
2018-09-01T05:35:13.508Z,5.63
2018-09-01T05:36:13.496Z,5.63
2018-09-01T05:37:13.488Z,5.63
2018-09-01T05:38:13.480Z,5.63
2018-09-01T05:39:13.466Z,5.63
2018-09-01T05:40:13.463Z,5.63
2018-09-01T05:41:13.454Z,5.63
2018-09-01T05:42:13.441Z,5.63
2018-09-01T05:43:13.431Z,5.63
2018-09-01T05:44:13.427Z,5.63
2018-09-01T05:45:13.412Z,5.63
2018-09-01T05:46:13.406Z,5.63
2018-09-01T05:47:13.395Z,5.63
2018-09-01T05:48:13.392Z,5.63
2018-09-01T05:49:13.379Z,11.25
2018-09-01T05:50:13.368Z,11.25
2018-09-01T05:51:13.361Z,11.25
2018-09-01T05:52:13.350Z,11.25
2018-09-01T05:53:13.346Z,11.25
2018-09-01T05:54:13.337Z,11.25
2018-09-01T05:55:13.329Z,11.25
2018-09-01T05:56:13.324Z,11.25
2018-09-01T05:57:13.311Z,11.25
2018-09-01T05:58:13.298Z,11.25
2018-09-01T05:59:13.296Z,11.25
2018-09-01T06:00:13.282Z,11.25
2018-09-01T06:01:13.277Z,11.25
2018-09-01T06:02:13.269Z,11.25
2018-09-01T06:03:13.257Z,11.25
2018-09-01T06:04:13.245Z,11.25
2018-09-01T06:05:13.239Z,11.25
2018-09-01T06:06:13.375Z,11.25
2018-09-01T06:07:13.222Z,11.25
2018-09-01T06:08:13.208Z,11.25
2018-09-01T06:09:13.202Z,11.25
2018-09-01T06:10:13.197Z,11.25
2018-09-01T06:11:13.185Z,11.25
2018-09-01T06:12:13.178Z,11.25
2018-09-01T06:13:13.170Z,11.25
2018-09-01T06:14:13.158Z,11.25
2018-09-01T06:15:13.147Z,11.25
2018-09-01T06:16:13.141Z,11.25
2018-09-01T06:17:13.131Z,11.25
2018-09-01T06:18:13.122Z,11.25
2018-09-01T06:19:13.144Z,11.25
2018-09-01T06:20:13.106Z,11.25
2018-09-01T06:21:13.093Z,16.88
2018-09-01T06:22:13.089Z,16.88
2018-09-01T06:23:13.076Z,16.88
2018-09-01T06:24:13.068Z,16.88
2018-09-01T06:25:13.066Z,16.88
2018-09-01T06:26:13.051Z,16.88
2018-09-01T06:27:13.045Z,16.88
2018-09-01T06:28:13.032Z,16.88
2018-09-01T06:29:13.029Z,16.88
2018-09-01T06:30:13.208Z,16.88
2018-09-01T06:31:13.008Z,16.88
2018-09-01T06:32:13.004Z,16.88
2018-09-01T06:33:12.990Z,16.88
2018-09-01T06:34:12.990Z,22.50
2018-09-01T06:35:12.976Z,22.50
2018-09-01T06:36:12.962Z,22.50
2018-09-01T06:37:12.959Z,22.50
2018-09-01T06:38:12.948Z,22.50
2018-09-01T06:39:12.940Z,16.88
2018-09-01T06:40:12.935Z,16.88
2018-09-01T06:41:12.925Z,16.88
2018-09-01T06:42:12.918Z,16.88
2018-09-01T06:43:12.912Z,16.88
2018-09-01T06:44:12.895Z,16.88
2018-09-01T06:45:12.888Z,16.88
2018-09-01T06:46:12.884Z,16.88
2018-09-01T06:47:12.877Z,16.88
2018-09-01T06:48:12.866Z,16.88
2018-09-01T06:49:12.861Z,16.88
2018-09-01T06:50:12.851Z,16.88
2018-09-01T06:51:12.835Z,11.25
2018-09-01T06:52:12.826Z,11.25
2018-09-01T06:53:12.825Z,11.25
2018-09-01T06:54:12.813Z,16.88
2018-09-01T06:55:12.805Z,16.88
2018-09-01T06:56:12.797Z,16.88
2018-09-01T06:57:12.786Z,16.88
2018-09-01T06:58:12.776Z,16.88
2018-09-01T06:59:12.767Z,16.88
2018-09-01T07:00:12.757Z,16.88
2018-09-01T07:01:12.750Z,22.50
2018-09-01T07:02:12.749Z,22.50
2018-09-01T07:03:12.836Z,22.50
2018-09-01T07:04:12.726Z,22.50
2018-09-01T07:05:12.716Z,22.50
2018-09-01T07:06:12.715Z,22.50
2018-09-01T07:07:12.705Z,22.50
2018-09-01T07:08:12.689Z,22.50
2018-09-01T07:09:12.684Z,22.50
2018-09-01T07:10:12.677Z,22.50
2018-09-01T07:11:12.670Z,22.50
2018-09-01T07:12:12.655Z,22.50
2018-09-01T07:13:12.646Z,22.50
2018-09-01T07:14:12.637Z,22.50
2018-09-01T07:15:12.636Z,28.13
2018-09-01T07:16:12.621Z,33.75
2018-09-01T07:17:12.615Z,33.75
2018-09-01T07:18:12.606Z,33.75
2018-09-01T07:19:12.599Z,33.75
2018-09-01T07:20:12.586Z,33.75
2018-09-01T07:21:12.582Z,33.75
2018-09-01T07:22:12.572Z,33.75
2018-09-01T07:23:12.561Z,33.75
2018-09-01T07:24:12.554Z,33.75
2018-09-01T07:25:12.543Z,33.75
2018-09-01T07:26:12.541Z,33.75
2018-09-01T07:27:12.527Z,33.75
2018-09-01T07:28:12.522Z,33.75
2018-09-01T07:29:12.515Z,33.75
2018-09-01T07:30:12.639Z,33.75
2018-09-01T07:31:12.840Z,39.38
2018-09-01T07:32:12.490Z,39.38
2018-09-01T07:33:12.476Z,39.38
2018-09-01T07:34:12.471Z,39.38
2018-09-01T07:35:12.476Z,39.38
2018-09-01T07:36:12.464Z,39.38
2018-09-01T07:37:12.467Z,45.00
2018-09-01T07:38:12.437Z,45.00
2018-09-01T07:39:12.426Z,45.00
2018-09-01T07:40:12.421Z,45.00
2018-09-01T07:41:12.413Z,45.00
2018-09-01T07:42:12.403Z,45.00
2018-09-01T07:43:12.391Z,45.00
2018-09-01T07:44:12.387Z,50.63
2018-09-01T07:45:12.377Z,50.63
2018-09-01T07:46:12.372Z,50.63
2018-09-01T07:47:12.362Z,50.63
2018-09-01T07:48:12.353Z,50.63
2018-09-01T07:49:12.340Z,50.63
2018-09-01T07:50:12.334Z,50.63
2018-09-01T07:51:12.324Z,50.63
2018-09-01T07:52:12.315Z,50.63
2018-09-01T07:53:12.308Z,50.63
2018-09-01T07:54:12.301Z,45.00
2018-09-01T07:55:12.290Z,45.00
2018-09-01T07:56:12.381Z,45.00
2018-09-01T07:57:12.278Z,45.00
2018-09-01T07:58:12.271Z,39.38
2018-09-01T07:59:12.256Z,39.38
2018-09-01T08:00:12.254Z,33.75
2018-09-01T08:01:12.239Z,33.75
2018-09-01T08:02:12.230Z,33.75
2018-09-01T08:03:12.225Z,33.75
2018-09-01T08:04:12.217Z,33.75
2018-09-01T08:05:12.210Z,33.75
2018-09-01T08:06:12.198Z,33.75
2018-09-01T08:07:12.193Z,33.75
2018-09-01T08:08:12.181Z,39.38
2018-09-01T08:09:12.177Z,39.38
2018-09-01T08:10:12.167Z,39.38
2018-09-01T08:11:12.165Z,39.38
2018-09-01T08:12:12.152Z,39.38
2018-09-01T08:13:12.146Z,45.00
2018-09-01T08:14:12.210Z,45.00
2018-09-01T08:15:12.131Z,45.00
2018-09-01T08:16:12.117Z,45.00
2018-09-01T08:17:12.109Z,45.00
2018-09-01T08:18:12.101Z,45.00
2018-09-01T08:19:12.098Z,45.00
2018-09-01T08:20:12.084Z,50.63
2018-09-01T08:21:12.089Z,50.63
2018-09-01T08:22:12.068Z,50.63
2018-09-01T08:23:12.058Z,50.63
2018-09-01T08:24:12.050Z,45.00
2018-09-01T08:25:12.043Z,45.00
2018-09-01T08:26:12.047Z,45.00
2018-09-01T08:27:12.027Z,45.00
2018-09-01T08:28:12.017Z,45.00
2018-09-01T08:29:12.010Z,45.00
2018-09-01T08:30:12.005Z,45.00
2018-09-01T08:31:11.996Z,45.00
2018-09-01T08:32:11.989Z,45.00
2018-09-01T08:33:11.980Z,45.00
2018-09-01T08:34:11.976Z,45.00
2018-09-01T08:35:11.962Z,45.00
2018-09-01T08:36:11.951Z,39.38
2018-09-01T08:37:11.943Z,39.38
2018-09-01T08:38:11.942Z,39.38
2018-09-01T08:39:11.936Z,39.38
2018-09-01T08:40:11.938Z,33.75
2018-09-01T08:41:11.912Z,33.75
2018-09-01T08:42:11.914Z,33.75
2018-09-01T08:43:11.898Z,28.13
2018-09-01T08:44:11.886Z,28.13
2018-09-01T08:45:11.929Z,28.13
2018-09-01T08:46:11.875Z,28.13
2018-09-01T08:47:11.871Z,28.13
2018-09-01T08:48:11.857Z,28.13
2018-09-01T08:49:11.853Z,22.50
2018-09-01T08:50:11.843Z,22.50
2018-09-01T08:51:11.838Z,22.50
2018-09-01T08:52:11.823Z,16.88
2018-09-01T08:53:11.821Z,16.88
2018-09-01T08:54:11.816Z,16.88
2018-09-01T08:55:11.805Z,16.88
2018-09-01T08:56:11.792Z,16.88
2018-09-01T08:57:11.787Z,16.88
2018-09-01T08:58:11.776Z,16.88
2018-09-01T08:59:11.773Z,16.88
2018-09-01T09:00:11.778Z,11.25
2018-09-01T09:01:11.758Z,11.25
2018-09-01T09:02:11.753Z,11.25
2018-09-01T09:03:11.745Z,11.25
2018-09-01T09:04:11.724Z,11.25
2018-09-01T09:05:11.729Z,11.25
2018-09-01T09:06:11.711Z,11.25
2018-09-01T09:07:11.704Z,11.25
2018-09-01T09:08:11.695Z,11.25
2018-09-01T09:09:11.693Z,11.25
2018-09-01T09:10:11.677Z,11.25
2018-09-01T09:11:11.673Z,11.25
2018-09-01T09:12:11.665Z,11.25
2018-09-01T09:13:11.656Z,16.88
2018-09-01T09:14:11.645Z,11.25
2018-09-01T09:15:11.638Z,11.25
2018-09-01T09:16:11.627Z,11.25
2018-09-01T09:17:11.622Z,11.25
2018-09-01T09:18:11.612Z,11.25
2018-09-01T09:19:11.606Z,5.63
2018-09-01T09:20:11.595Z,5.63
2018-09-01T09:21:11.590Z,11.25
2018-09-01T09:22:11.584Z,11.25
2018-09-01T09:23:11.577Z,11.25
2018-09-01T09:24:11.562Z,11.25
2018-09-01T09:25:11.555Z,11.25
2018-09-01T09:26:11.553Z,11.25
2018-09-01T09:27:11.540Z,11.25
2018-09-01T09:28:11.535Z,11.25
2018-09-01T09:29:11.527Z,11.25
2018-09-01T09:30:11.520Z,11.25
2018-09-01T09:31:11.505Z,5.63
2018-09-01T09:32:11.496Z,5.63
2018-09-01T09:33:11.488Z,5.63
2018-09-01T09:34:11.485Z,5.63
2018-09-01T09:35:11.473Z,5.63
2018-09-01T09:36:11.463Z,5.63
2018-09-01T09:37:11.455Z,5.63
2018-09-01T09:38:11.449Z,5.63
2018-09-01T09:39:11.445Z,5.63
2018-09-01T09:40:11.439Z,5.63
2018-09-01T09:41:11.423Z,5.63
2018-09-01T09:42:11.419Z,5.63
2018-09-01T09:43:11.410Z,5.63
2018-09-01T09:44:11.406Z,11.25
2018-09-01T09:45:11.394Z,11.25
2018-09-01T09:46:11.385Z,11.25
2018-09-01T09:47:11.375Z,11.25
2018-09-01T09:48:11.368Z,5.63
2018-09-01T09:49:11.367Z,5.63
2018-09-01T09:50:11.350Z,11.25
2018-09-01T09:51:11.349Z,11.25
2018-09-01T09:52:11.335Z,11.25
2018-09-01T09:53:11.330Z,16.88
2018-09-01T09:54:11.319Z,22.50
2018-09-01T09:55:11.312Z,28.13
2018-09-01T09:56:11.303Z,28.13
2018-09-01T09:57:11.298Z,28.13
2018-09-01T09:58:11.299Z,28.13
2018-09-01T09:59:11.279Z,33.75
2018-09-01T10:00:11.275Z,39.38
2018-09-01T10:01:11.265Z,45.00
2018-09-01T10:02:11.262Z,50.63
2018-09-01T10:03:11.248Z,50.63
2018-09-01T10:04:11.246Z,50.63
2018-09-01T10:05:11.240Z,50.63
2018-09-01T10:06:11.230Z,50.63
2018-09-01T10:07:11.217Z,50.63
2018-09-01T10:08:11.207Z,50.63
2018-09-01T10:09:11.202Z,50.63
2018-09-01T10:10:11.192Z,45.00
2018-09-01T10:11:11.200Z,45.00
2018-09-01T10:12:11.189Z,39.38
2018-09-01T10:13:11.173Z,39.38
2018-09-01T10:14:11.163Z,39.38
2018-09-01T10:15:11.153Z,33.75
2018-09-01T10:16:11.144Z,33.75
2018-09-01T10:17:11.139Z,28.13
2018-09-01T10:18:11.129Z,28.13
2018-09-01T10:19:11.128Z,28.13
2018-09-01T10:20:11.228Z,22.50
2018-09-01T10:21:11.106Z,22.50
2018-09-01T10:22:11.103Z,22.50
2018-09-01T10:23:11.096Z,28.13
2018-09-01T10:24:11.082Z,28.13
2018-09-01T10:25:11.076Z,28.13
2018-09-01T10:26:11.075Z,28.13
2018-09-01T10:27:11.073Z,28.13
2018-09-01T10:28:11.055Z,28.13
2018-09-01T10:29:11.048Z,22.50
2018-09-01T10:30:11.040Z,22.50
2018-09-01T10:31:11.033Z,22.50
2018-09-01T10:32:11.024Z,22.50
2018-09-01T10:33:11.032Z,22.50
2018-09-01T10:34:11.006Z,16.88
2018-09-01T10:35:10.995Z,22.50
2018-09-01T10:36:10.989Z,22.50
2018-09-01T10:37:10.979Z,22.50
2018-09-01T10:38:10.973Z,22.50
2018-09-01T10:39:10.963Z,22.50
2018-09-01T10:40:10.962Z,16.88
2018-09-01T10:41:10.953Z,16.88
2018-09-01T10:42:10.947Z,16.88
2018-09-01T10:43:10.933Z,16.88
2018-09-01T10:44:10.923Z,11.25
2018-09-01T10:45:10.915Z,11.25
2018-09-01T10:46:10.917Z,11.25
2018-09-01T10:47:10.906Z,11.25
2018-09-01T10:48:10.901Z,11.25
2018-09-01T10:49:10.888Z,11.25
2018-09-01T10:50:10.885Z,11.25
2018-09-01T10:51:10.871Z,11.25
2018-09-01T10:52:10.865Z,11.25
2018-09-01T10:53:10.860Z,11.25
2018-09-01T10:54:10.848Z,5.63
2018-09-01T10:55:10.845Z,5.63
2018-09-01T10:56:10.831Z,5.63
2018-09-01T10:57:10.827Z,5.63
2018-09-01T10:58:10.817Z,5.63
2018-09-01T10:59:11.037Z,5.63
2018-09-01T11:00:10.802Z,5.63
2018-09-01T11:01:10.793Z,11.25
2018-09-01T11:02:10.788Z,11.25
2018-09-01T11:03:10.779Z,11.25
2018-09-01T11:04:10.770Z,16.88
2018-09-01T11:05:10.821Z,22.50
2018-09-01T11:06:10.759Z,22.50
2018-09-01T11:07:10.749Z,28.13
2018-09-01T11:08:10.738Z,28.13
2018-09-01T11:09:10.736Z,28.13
2018-09-01T11:10:10.721Z,33.75
2018-09-01T11:11:10.712Z,39.38
2018-09-01T11:12:10.711Z,50.63
2018-09-01T11:13:10.698Z,50.63
2018-09-01T11:14:10.687Z,61.88
2018-09-01T11:15:10.684Z,67.50
2018-09-01T11:16:10.678Z,73.13
2018-09-01T11:17:10.666Z,73.13
2018-09-01T11:18:10.660Z,78.75
2018-09-01T11:19:10.657Z,78.75
2018-09-01T11:20:10.741Z,73.13
2018-09-01T11:21:10.634Z,73.13
2018-09-01T11:22:10.623Z,67.50
2018-09-01T11:23:10.615Z,61.88
2018-09-01T11:24:10.608Z,61.88
2018-09-01T11:25:10.600Z,56.25
2018-09-01T11:26:10.599Z,56.25
2018-09-01T11:27:10.584Z,61.88
2018-09-01T11:28:10.717Z,61.88
2018-09-01T11:29:10.569Z,67.50
2018-09-01T11:30:10.566Z,67.50
2018-09-01T11:31:10.557Z,67.50
2018-09-01T11:32:10.547Z,67.50
2018-09-01T11:33:10.557Z,67.50
2018-09-01T11:34:10.551Z,61.88
2018-09-01T11:35:10.524Z,61.88
2018-09-01T11:36:10.594Z,61.88
2018-09-01T11:37:10.508Z,61.88
2018-09-01T11:38:10.509Z,61.88
2018-09-01T11:39:10.503Z,67.50
2018-09-01T11:40:10.589Z,67.50
2018-09-01T11:41:10.534Z,67.50
2018-09-01T11:42:10.471Z,67.50
2018-09-01T11:43:10.849Z,67.50
2018-09-01T11:44:10.461Z,67.50
2018-09-01T11:45:10.455Z,67.50
2018-09-01T11:46:10.448Z,67.50
2018-09-01T11:47:10.434Z,67.50
2018-09-01T11:48:10.431Z,67.50
2018-09-01T11:49:10.421Z,67.50
2018-09-01T11:50:10.474Z,67.50
2018-09-01T11:51:10.413Z,67.50
2018-09-01T11:52:10.449Z,61.88
2018-09-01T11:53:10.420Z,67.50
2018-09-01T11:54:10.416Z,67.50
2018-09-01T11:55:10.383Z,67.50
2018-09-01T11:56:10.377Z,61.88
2018-09-01T11:57:10.372Z,61.88
2018-09-01T11:58:10.359Z,56.25
2018-09-01T11:59:10.349Z,56.25
2018-09-01T12:00:10.340Z,56.25
2018-09-01T12:01:10.365Z,56.25
2018-09-01T12:02:10.416Z,56.25
2018-09-01T12:03:10.327Z,56.25
2018-09-01T12:04:10.318Z,50.63
2018-09-01T12:05:10.306Z,50.63
2018-09-01T12:06:10.307Z,50.63
2018-09-01T12:07:10.298Z,50.63
2018-09-01T12:08:10.286Z,50.63
2018-09-01T12:09:10.473Z,50.63
2018-09-01T12:10:10.279Z,50.63
2018-09-01T12:11:10.270Z,50.63
2018-09-01T12:12:10.262Z,50.63
2018-09-01T12:13:10.254Z,56.25
2018-09-01T12:14:10.251Z,56.25
2018-09-01T12:15:10.239Z,56.25
2018-09-01T12:16:10.241Z,56.25
2018-09-01T12:17:10.227Z,56.25
2018-09-01T12:18:10.221Z,56.25
2018-09-01T12:19:10.220Z,56.25
2018-09-01T12:20:10.208Z,56.25
2018-09-01T12:21:10.204Z,56.25
2018-09-01T12:22:10.250Z,56.25
2018-09-01T12:23:10.182Z,56.25
2018-09-01T12:24:10.187Z,56.25
2018-09-01T12:25:10.173Z,50.63
2018-09-01T12:26:10.174Z,50.63
2018-09-01T12:27:10.155Z,50.63
2018-09-01T12:28:10.232Z,45.00
2018-09-01T12:29:10.142Z,45.00
2018-09-01T12:30:10.132Z,45.00
2018-09-01T12:31:10.132Z,50.63
2018-09-01T12:32:10.127Z,50.63
2018-09-01T12:33:10.122Z,50.63
2018-09-01T12:34:10.110Z,50.63
2018-09-01T12:35:10.109Z,50.63
2018-09-01T12:36:10.108Z,45.00
2018-09-01T12:37:10.090Z,45.00
2018-09-01T12:38:10.081Z,50.63
2018-09-01T12:39:10.072Z,50.63
2018-09-01T12:40:10.063Z,50.63
2018-09-01T12:41:10.060Z,50.63
2018-09-01T12:42:10.193Z,50.63
2018-09-01T12:43:10.040Z,50.63
2018-09-01T12:44:10.031Z,50.63
2018-09-01T12:45:10.032Z,50.63
2018-09-01T12:46:10.022Z,50.63
2018-09-01T12:47:10.020Z,50.63
2018-09-01T12:48:10.010Z,50.63
2018-09-01T12:49:09.995Z,50.63
2018-09-01T12:50:09.991Z,50.63
2018-09-01T12:51:09.982Z,50.63
2018-09-01T12:52:09.978Z,50.63
2018-09-01T12:53:09.991Z,50.63
2018-09-01T12:54:09.965Z,50.63
2018-09-01T12:55:09.965Z,50.63
2018-09-01T12:56:09.949Z,50.63
2018-09-01T12:57:09.940Z,50.63
2018-09-01T12:58:09.933Z,50.63
2018-09-01T12:59:09.925Z,50.63
2018-09-01T13:00:09.920Z,50.63
2018-09-01T13:01:09.919Z,45.00
2018-09-01T13:02:09.908Z,45.00
2018-09-01T13:03:09.897Z,45.00
2018-09-01T13:04:09.894Z,50.63